Time;durP1;ratioP1;P1;durP2;ratioP2;P2;SDS_P1;SDS_P2;PMS_P1;PMS_P2;Temp;Humidity;BMP_temperature;BMP_pressure;BME280_temperature;BME280_humidity;BME280_pressure;Samples;Min_cycle;Max_cycle;Signal;HPM_P1;HPM_P2
2022/11/15 00:01:41;;;;;;;15.88;8.13;;;10.20;99.90;;;;;;4988268;28;20093;-60
2022/11/15 00:04:06;;;;;;;18.65;8.40;;;10.20;99.90;;;;;;4998335;28;20054;-61
2022/11/15 00:06:32;;;;;;;14.60;7.47;;;10.20;99.90;;;;;;4991687;28;20093;-59
2022/11/15 00:08:59;;;;;;;15.82;8.30;;;10.20;99.90;;;;;;4993255;28;20034;-60
2022/11/15 00:11:24;;;;;;;14.43;7.97;;;10.20;99.90;;;;;;5000258;28;20364;-60
2022/11/15 00:13:50;;;;;;;16.83;9.27;;;10.20;99.90;;;;;;4962978;28;20052;-60
2022/11/15 00:16:15;;;;;;;17.50;8.57;;;10.30;99.90;;;;;;4988555;28;20146;-58
2022/11/15 00:18:41;;;;;;;16.23;8.63;;;10.30;99.90;;;;;;4995199;28;20037;-58
2022/11/15 00:21:10;;;;;;;17.20;7.85;;;10.40;99.90;;;;;;4992404;28;20048;-58
2022/11/15 00:23:37;;;;;;;20.08;9.00;;;10.40;99.90;;;;;;4982444;28;20104;-59
2022/11/15 00:26:02;;;;;;;20.92;8.60;;;10.40;99.90;;;;;;4980053;28;20426;-60
2022/11/15 00:28:28;;;;;;;12.55;7.70;;;10.40;99.90;;;;;;4990568;28;20109;-61
2022/11/15 00:31:00;;;;;;;15.52;8.68;;;10.40;99.90;;;;;;4984265;28;20062;-61
2022/11/15 00:33:25;;;;;;;17.80;9.52;;;10.50;99.90;;;;;;4978638;28;20042;-60
2022/11/15 00:35:51;;;;;;;13.63;7.70;;;10.50;99.90;;;;;;4981188;28;20030;-60
2022/11/15 00:38:16;;;;;;;15.48;7.78;;;10.50;99.90;;;;;;4982816;28;20124;-61
2022/11/15 00:40:42;;;;;;;22.48;9.85;;;10.50;99.90;;;;;;4982057;28;20026;-60
2022/11/15 00:43:07;;;;;;;13.73;8.15;;;10.50;99.90;;;;;;4979891;28;20034;-59
2022/11/15 00:45:33;;;;;;;18.65;8.02;;;10.50;99.90;;;;;;4978799;28;20381;-60
2022/11/15 00:47:59;;;;;;;19.80;9.10;;;10.60;99.90;;;;;;4978409;28;20038;-58
2022/11/15 00:50:24;;;;;;;20.13;8.60;;;10.70;99.90;;;;;;4964618;28;20137;-61
2022/11/15 00:52:50;;;;;;;17.35;8.13;;;10.60;99.90;;;;;;4981950;28;20080;-59
2022/11/15 00:55:16;;;;;;;13.65;8.25;;;10.70;99.90;;;;;;4985835;28;20033;-59
2022/11/15 00:57:42;;;;;;;13.15;8.02;;;10.60;99.90;;;;;;4982138;28;20031;-62
2022/11/15 01:00:08;;;;;;;16.17;8.68;;;10.70;99.90;;;;;;4981905;28;20027;-59
2022/11/15 01:02:34;;;;;;;16.33;8.88;;;10.70;99.90;;;;;;4981645;28;20127;-61
2022/11/15 01:05:00;;;;;;;13.48;8.00;;;10.60;99.90;;;;;;4980823;28;20030;-61
2022/11/15 01:07:25;;;;;;;17.02;8.00;;;10.70;99.90;;;;;;4981722;28;20624;-57
2022/11/15 01:09:51;;;;;;;13.63;7.78;;;10.60;99.90;;;;;;4984503;28;20044;-59
2022/11/15 01:12:16;;;;;;;17.80;7.78;;;10.60;99.90;;;;;;4985618;28;20030;-60
2022/11/15 01:14:42;;;;;;;16.00;8.02;;;10.50;99.90;;;;;;4992874;28;20498;-57
2022/11/15 01:17:08;;;;;;;11.65;6.85;;;10.60;99.90;;;;;;4988280;28;20161;-60
2022/11/15 01:19:33;;;;;;;21.48;7.55;;;10.60;99.90;;;;;;4981986;28;20030;-60
2022/11/15 01:21:59;;;;;;;14.10;7.47;;;10.50;99.90;;;;;;4979206;28;20248;-57
2022/11/15 01:24:24;;;;;;;14.73;8.10;;;10.50;99.90;;;;;;4980371;28;20072;-59
2022/11/15 01:26:50;;;;;;;13.27;7.60;;;10.50;99.90;;;;;;4983559;28;20143;-61
2022/11/15 01:29:15;;;;;;;14.15;7.75;;;10.40;99.90;;;;;;4981896;28;20030;-60
2022/11/15 01:31:41;;;;;;;13.30;7.43;;;10.40;99.90;;;;;;4981077;28;20038;-59
2022/11/15 01:34:06;;;;;;;17.08;7.20;;;10.50;99.90;;;;;;4977599;28;20062;-60
2022/11/15 01:36:32;;;;;;;17.50;8.07;;;10.50;99.90;;;;;;4979778;28;20497;-58
2022/11/15 01:38:58;;;;;;;16.83;8.40;;;10.50;99.90;;;;;;4982989;28;20030;-57
2022/11/15 01:41:27;;;;;;;14.15;7.70;;;10.50;99.90;;;;;;4964446;28;20026;-59
2022/11/15 01:43:56;;;;;;;16.60;8.25;;;10.50;99.90;;;;;;4976894;28;20637;-59
2022/11/15 01:46:21;;;;;;;15.82;8.85;;;10.60;99.90;;;;;;4979613;28;20034;-60
2022/11/15 01:48:49;;;;;;;18.90;8.32;;;10.60;99.90;;;;;;4986878;28;20057;-59
2022/11/15 01:51:17;;;;;;;18.23;8.05;;;10.60;99.90;;;;;;4988533;28;20030;-60
2022/11/15 01:53:48;;;;;;;17.77;8.85;;;10.60;99.90;;;;;;4971586;28;20036;-60
2022/11/15 01:56:27;;;;;;;21.40;8.90;;;10.70;99.90;;;;;;4982429;28;20566;-57
2022/11/15 01:58:55;;;;;;;12.80;7.53;;;10.70;99.90;;;;;;4979687;28;20038;-61
2022/11/15 02:01:22;;;;;;;14.23;7.82;;;10.70;99.90;;;;;;4982670;28;20492;-59
2022/11/15 02:03:56;;;;;;;19.38;8.05;;;10.70;99.90;;;;;;4977239;28;20546;-61
2022/11/15 02:06:22;;;;;;;;;;;10.70;99.90;;;;;;4982100;28;20023;-57
2022/11/15 02:08:49;;;;;;;12.23;7.07;;;10.70;99.90;;;;;;4983280;28;20355;-60
2022/11/15 02:11:15;;;;;;;15.13;8.02;;;10.70;99.90;;;;;;4984955;28;20042;-61
2022/11/15 02:13:41;;;;;;;11.57;6.80;;;10.70;99.90;;;;;;4976465;28;20559;-58
2022/11/15 02:16:18;;;;;;;11.70;7.13;;;10.80;99.90;;;;;;4981891;28;20046;-58
2022/11/15 02:18:59;;;;;;;17.15;8.63;;;10.80;99.90;;;;;;4979803;28;21901;-57
2022/11/15 02:21:51;;;;;;;16.88;8.38;;;10.90;99.90;;;;;;4978388;28;20499;-61
2022/11/15 02:24:41;;;;;;;12.73;7.72;;;10.90;99.90;;;;;;4970180;28;20069;-61
2022/11/15 02:27:33;;;;;;;15.10;7.57;;;10.90;99.90;;;;;;4991105;28;20098;-61
2022/11/15 02:30:23;;;;;;;15.65;8.73;;;10.90;99.90;;;;;;4985092;28;20147;-61
2022/11/15 02:32:54;;;;;;;17.30;7.93;;;11.00;99.90;;;;;;4989903;28;20034;-58
2022/11/15 02:35:50;;;;;;;15.82;7.47;;;11.00;99.90;;;;;;4983613;28;20583;-60
2022/11/15 02:38:42;;;;;;;13.77;7.63;;;11.00;99.90;;;;;;4994701;28;20080;-61
2022/11/15 02:41:35;;;;;;;13.32;8.05;;;11.00;99.90;;;;;;4991134;28;20027;-61
2022/11/15 02:44:17;;;;;;;15.50;7.65;;;11.00;99.90;;;;;;4986034;28;20042;-61
2022/11/15 02:49:35;;;;;;;21.60;8.60;;;11.10;99.90;;;;;;4979998;28;20200;-61
2022/11/15 02:52:01;;;;;;;11.90;8.10;;;11.10;99.90;;;;;;4978647;28;20116;-62
2022/11/15 02:54:31;;;;;;;16.02;8.85;;;11.20;99.90;;;;;;4979722;28;20030;-60
2022/11/15 02:57:10;;;;;;;21.27;8.77;;;11.20;99.90;;;;;;4982623;28;20023;-60
2022/11/15 03:00:03;;;;;;;15.23;8.35;;;11.30;99.90;;;;;;4978968;28;20031;-59
2022/11/15 03:02:56;;;;;;;15.07;8.57;;;11.30;99.90;;;;;;4979104;28;20026;-59
2022/11/15 03:05:35;;;;;;;13.70;7.75;;;11.40;99.90;;;;;;4976734;28;20049;-60
2022/11/15 03:08:07;;;;;;;14.40;7.93;;;11.50;99.90;;;;;;4981967;28;20094;-60
2022/11/15 03:10:36;;;;;;;13.07;6.82;;;11.60;99.90;;;;;;4979348;28;20062;-60
2022/11/15 03:13:28;;;;;;;13.05;7.32;;;11.60;99.90;;;;;;4981663;28;20039;-60
2022/11/15 03:16:03;;;;;;;12.43;7.57;;;11.70;99.90;;;;;;4974320;28;20058;-60
2022/11/15 03:18:31;;;;;;;;;;;11.80;99.90;;;;;;4981904;28;20118;-60
2022/11/15 03:21:00;;;;;;;10.52;6.50;;;11.80;99.90;;;;;;4978130;28;20276;-59
2022/11/15 03:23:28;;;;;;;18.08;7.63;;;11.90;99.90;;;;;;4977999;28;20028;-61
2022/11/15 03:25:56;;;;;;;13.27;6.93;;;11.90;99.90;;;;;;4978999;28;20047;-59
2022/11/15 03:28:33;;;;;;;12.48;7.13;;;11.90;99.90;;;;;;4981199;28;20049;-59
2022/11/15 03:31:01;;;;;;;14.73;8.00;;;11.90;99.90;;;;;;4981322;28;20031;-60
2022/11/15 03:33:29;;;;;;;17.55;6.95;;;11.90;99.90;;;;;;4992473;28;20100;-60
2022/11/15 03:35:55;;;;;;;11.63;7.15;;;11.90;99.90;;;;;;4987436;28;20023;-60
2022/11/15 03:38:31;;;;;;;11.00;6.32;;;11.90;99.90;;;;;;4982843;28;20086;-61
2022/11/15 03:41:03;;;;;;;12.32;6.63;;;11.90;99.90;;;;;;4984803;28;20504;-60
2022/11/15 03:43:45;;;;;;;12.70;6.00;;;12.00;99.90;;;;;;4990443;28;20254;-61
2022/11/15 03:46:19;;;;;;;9.52;6.55;;;11.90;99.90;;;;;;4992167;28;20113;-60
2022/11/15 03:48:51;;;;;;;10.10;6.38;;;11.90;99.90;;;;;;4986817;28;20041;-59
2022/11/15 03:51:17;;;;;;;13.65;7.15;;;11.90;99.90;;;;;;4977252;28;20062;-60
2022/11/15 03:53:42;;;;;;;15.15;6.68;;;11.90;99.90;;;;;;4976729;28;20068;-60
2022/11/15 03:56:08;;;;;;;17.63;6.50;;;11.90;99.90;;;;;;4982595;28;20417;-59
2022/11/15 03:58:33;;;;;;;15.07;7.03;;;11.90;99.90;;;;;;4983488;28;20112;-55
2022/11/15 04:00:59;;;;;;;12.00;5.53;;;11.90;99.90;;;;;;4981743;28;20038;-60
2022/11/15 04:03:25;;;;;;;9.27;5.90;;;11.90;99.90;;;;;;4981642;28;20030;-58
2022/11/15 04:05:50;;;;;;;14.57;6.15;;;11.90;99.90;;;;;;4965991;28;20492;-60
2022/11/15 04:08:16;;;;;;;10.05;5.82;;;11.90;99.90;;;;;;4983504;28;20038;-58
2022/11/15 04:10:42;;;;;;;14.20;5.95;;;11.90;99.90;;;;;;4986712;28;20026;-60
2022/11/15 04:13:08;;;;;;;13.60;6.82;;;11.80;99.90;;;;;;4987226;28;20046;-59
2022/11/15 04:15:34;;;;;;;11.50;5.53;;;11.80;99.90;;;;;;4983986;28;20019;-60
2022/11/15 04:17:59;;;;;;;13.80;6.47;;;11.80;99.90;;;;;;4981134;28;20370;-61
2022/11/15 04:26:15;;;;;;;10.68;6.20;;;11.80;99.90;;;;;;4981169;28;20029;-59
2022/11/15 04:31:25;;;;;;;14.93;7.43;;;11.80;99.90;;;;;;4984369;28;20032;-61
2022/11/15 04:33:51;;;;;;;8.95;6.65;;;11.80;99.90;;;;;;4981334;28;20038;-59
2022/11/15 04:39:00;;;;;;;14.73;7.60;;;11.90;99.90;;;;;;4990784;28;20149;-60
2022/11/15 04:41:26;;;;;;;12.48;7.20;;;11.90;99.90;;;;;;4990408;28;20516;-59
2022/11/15 04:43:51;;;;;;;15.60;8.23;;;11.90;99.90;;;;;;4990497;28;20033;-58
2022/11/15 04:46:17;;;;;;;13.82;7.38;;;11.90;99.90;;;;;;4992285;28;20495;-60
2022/11/15 04:48:43;;;;;;;12.20;7.72;;;11.90;99.90;;;;;;4995930;28;20030;-59
2022/11/15 04:51:08;;;;;;;13.25;6.90;;;11.90;99.90;;;;;;4990080;28;20461;-61
2022/11/15 04:53:34;;;;;;;10.85;7.30;;;11.90;99.90;;;;;;4992393;28;20045;-60
2022/11/15 04:55:59;;;;;;;13.35;7.18;;;11.90;99.90;;;;;;4992986;28;20058;-60
2022/11/15 04:58:25;;;;;;;13.13;7.43;;;11.90;99.90;;;;;;4992150;28;20156;-60
2022/11/15 05:00:50;;;;;;;10.77;7.30;;;11.90;99.90;;;;;;4973907;28;20512;-57
2022/11/15 05:06:11;;;;;;;;;;;11.90;99.90;;;;;;4925886;28;20857;-58
2022/11/15 05:11:14;;;;;;;11.82;7.03;;;11.90;99.90;;;;;;4978365;28;20046;-60
2022/11/15 05:13:40;;;;;;;9.48;6.70;;;11.80;99.90;;;;;;4990956;28;20030;-60
2022/11/15 05:16:06;;;;;;;11.70;6.43;;;11.80;99.90;;;;;;4988021;28;20030;-62
2022/11/15 05:18:31;;;;;;;12.38;7.15;;;11.80;99.90;;;;;;4989170;28;20032;-61
2022/11/15 05:21:21;;;;;;;11.95;6.68;;;11.70;99.90;;;;;;4974016;28;20114;-61
2022/11/15 05:23:46;;;;;;;9.50;6.70;;;11.70;99.90;;;;;;4985767;28;20080;-58
2022/11/15 05:26:14;;;;;;;11.90;7.45;;;11.60;99.90;;;;;;4983226;28;20749;-59
2022/11/15 05:28:40;;;;;;;12.45;7.15;;;11.50;99.90;;;;;;4983653;28;20128;-59
2022/11/15 05:31:08;;;;;;;12.98;6.32;;;11.40;99.90;;;;;;4982624;28;20034;-58
2022/11/15 05:33:35;;;;;;;12.10;6.55;;;11.40;99.90;;;;;;4981875;28;20034;-60
2022/11/15 05:36:09;;;;;;;13.40;7.47;;;11.40;99.90;;;;;;4982587;28;20475;-58
2022/11/15 05:38:35;;;;;;;11.35;6.68;;;11.30;99.90;;;;;;4989512;28;20024;-62
2022/11/15 05:41:03;;;;;;;12.00;6.60;;;11.30;99.90;;;;;;4983721;28;20038;-58
2022/11/15 05:43:32;;;;;;;10.32;6.93;;;11.20;99.90;;;;;;4981025;28;20026;-58
2022/11/15 05:45:59;;;;;;;19.13;7.53;;;11.10;99.90;;;;;;4987646;28;20459;-58
2022/11/15 05:48:25;;;;;;;9.45;6.45;;;10.90;99.90;;;;;;4981081;28;20042;-61
2022/11/15 05:50:51;;;;;;;9.60;6.15;;;10.80;99.90;;;;;;4982454;28;20435;-60
2022/11/15 05:53:20;;;;;;;10.98;6.32;;;10.70;99.90;;;;;;4980281;28;20030;-62
2022/11/15 05:55:46;;;;;;;15.18;6.80;;;10.70;99.90;;;;;;4982953;28;20060;-59
2022/11/15 05:58:11;;;;;;;10.43;6.15;;;10.50;99.90;;;;;;4982782;28;20563;-61
2022/11/15 06:00:37;;;;;;;10.23;6.10;;;10.40;99.90;;;;;;4981045;28;20035;-59
2022/11/15 06:03:03;;;;;;;9.73;6.35;;;10.40;99.90;;;;;;4985767;28;20908;-60
2022/11/15 06:05:28;;;;;;;10.93;5.82;;;10.40;99.90;;;;;;4986318;28;20029;-61
2022/11/15 06:07:58;;;;;;;7.80;5.55;;;10.30;99.90;;;;;;4991288;28;20058;-62
2022/11/15 06:10:23;;;;;;;19.35;5.45;;;10.20;99.90;;;;;;4974278;28;20033;-59
2022/11/15 06:12:57;;;;;;;11.70;5.88;;;10.30;99.90;;;;;;4984194;28;20038;-60
2022/11/15 06:15:22;;;;;;;8.43;5.32;;;10.20;99.90;;;;;;4981939;28;20039;-61
2022/11/15 06:17:48;;;;;;;9.55;5.75;;;10.10;99.90;;;;;;4986954;28;20077;-61
2022/11/15 06:20:14;;;;;;;9.65;5.50;;;10.20;99.90;;;;;;4980916;28;20038;-60
2022/11/15 06:22:39;;;;;;;9.57;5.30;;;10.10;99.90;;;;;;4987196;28;20105;-61
2022/11/15 06:25:05;;;;;;;9.32;5.43;;;10.10;99.90;;;;;;4989942;28;20524;-61
2022/11/15 06:27:30;;;;;;;11.38;4.53;;;10.00;99.90;;;;;;4980173;28;20037;-61
2022/11/15 06:29:56;;;;;;;9.50;4.40;;;10.00;99.90;;;;;;4983041;28;20132;-59
2022/11/15 06:32:21;;;;;;;6.20;4.20;;;10.10;99.90;;;;;;4981557;28;20035;-58
2022/11/15 06:34:47;;;;;;;10.27;4.47;;;10.10;99.90;;;;;;4984364;28;20037;-58
2022/11/15 06:37:12;;;;;;;7.38;3.35;;;10.10;99.90;;;;;;4982828;28;20026;-60
2022/11/15 06:39:38;;;;;;;9.88;4.20;;;10.10;99.90;;;;;;4982850;28;20426;-59
2022/11/15 06:42:03;;;;;;;6.55;3.70;;;10.00;99.90;;;;;;4989657;28;20058;-57
2022/11/15 06:44:29;;;;;;;13.40;4.32;;;10.00;99.90;;;;;;4987563;28;20030;-61
2022/11/15 06:46:54;;;;;;;6.88;3.58;;;10.00;99.90;;;;;;4985754;28;20443;-58
2022/11/15 06:49:20;;;;;;;5.85;2.90;;;10.00;99.90;;;;;;4983062;28;20045;-60
2022/11/15 06:51:46;;;;;;;6.53;2.90;;;10.10;99.90;;;;;;4987612;28;20038;-57
2022/11/15 06:54:11;;;;;;;7.20;3.30;;;10.10;99.90;;;;;;4984554;28;20046;-59
2022/11/15 06:56:37;;;;;;;5.38;2.83;;;10.10;99.90;;;;;;4990543;28;20477;-59
2022/11/15 06:59:02;;;;;;;5.13;3.22;;;10.10;99.90;;;;;;4990441;28;20057;-60
2022/11/15 07:01:28;;;;;;;8.55;3.17;;;10.10;99.90;;;;;;4990258;28;20026;-59
2022/11/15 07:03:53;;;;;;;6.78;2.85;;;10.10;99.90;;;;;;4987504;28;20035;-59
2022/11/15 07:06:19;;;;;;;3.40;2.30;;;10.00;99.90;;;;;;4983507;28;20037;-59
2022/11/15 07:08:45;;;;;;;2.05;1.73;;;10.10;99.90;;;;;;4990888;28;20036;-60
2022/11/15 07:11:11;;;;;;;7.30;2.70;;;10.10;99.90;;;;;;4987218;28;20376;-60
2022/11/15 07:13:37;;;;;;;4.15;2.30;;;10.10;99.90;;;;;;4980658;28;20030;-61
2022/11/15 07:16:07;;;;;;;4.50;2.20;;;10.10;99.90;;;;;;4985469;28;20022;-59
2022/11/15 07:18:39;;;;;;;4.78;2.22;;;10.00;99.90;;;;;;4988457;28;20535;-60
2022/11/15 07:21:09;;;;;;;4.50;2.22;;;10.00;99.90;;;;;;4988103;28;20034;-58
2022/11/15 07:23:39;;;;;;;4.63;1.90;;;10.00;99.90;;;;;;4984357;28;20026;-58
2022/11/15 07:26:05;;;;;;;3.83;1.90;;;10.10;99.90;;;;;;4990968;28;20026;-57
2022/11/15 07:28:31;;;;;;;4.05;2.28;;;10.10;99.90;;;;;;4984327;28;20022;-59
2022/11/15 07:30:56;;;;;;;5.35;2.58;;;10.20;99.90;;;;;;4992272;28;20089;-59
2022/11/15 07:33:22;;;;;;;4.68;2.10;;;10.30;99.90;;;;;;4991419;28;20042;-59
2022/11/15 07:35:50;;;;;;;5.90;1.92;;;10.40;99.90;;;;;;4990914;28;20027;-60
2022/11/15 07:38:20;;;;;;;4.28;1.92;;;10.50;99.90;;;;;;4989380;28;20031;-60
2022/11/15 07:40:46;;;;;;;4.32;2.08;;;10.60;99.90;;;;;;4987277;28;20054;-60
2022/11/15 07:43:12;;;;;;;5.10;1.80;;;10.60;99.90;;;;;;4989625;28;20018;-60
2022/11/15 07:45:45;;;;;;;5.35;2.28;;;10.70;99.90;;;;;;4993729;28;20373;-59
2022/11/15 07:48:11;;;;;;;3.30;1.73;;;10.70;99.90;;;;;;4988645;28;20054;-56
2022/11/15 07:50:36;;;;;;;3.00;1.65;;;10.80;99.90;;;;;;4983861;28;20537;-59
2022/11/15 07:53:02;;;;;;;3.38;1.60;;;10.80;99.90;;;;;;4986504;28;20038;-57
2022/11/15 07:55:31;;;;;;;4.68;1.52;;;10.90;99.90;;;;;;4986700;28;20617;-59
2022/11/15 07:58:04;;;;;;;4.18;1.80;;;10.90;99.90;;;;;;4985691;28;20046;-57
2022/11/15 08:00:30;;;;;;;1.65;1.30;;;10.90;99.90;;;;;;4992286;28;20018;-60
2022/11/15 08:03:10;;;;;;;3.90;1.75;;;11.00;99.90;;;;;;4993406;28;20531;-58
2022/11/15 08:05:37;;;;;;;2.95;1.77;;;11.00;99.90;;;;;;4993251;28;20447;-60
2022/11/15 08:08:03;;;;;;;4.82;1.50;;;11.00;99.90;;;;;;4994741;28;20033;-60
2022/11/15 08:10:29;;;;;;;5.28;1.50;;;11.00;99.90;;;;;;4994474;28;20129;-61
2022/11/15 08:13:13;;;;;;;3.33;1.65;;;11.10;99.90;;;;;;4993339;28;20468;-61
2022/11/15 08:15:39;;;;;;;2.53;1.40;;;11.10;99.90;;;;;;4994765;28;20050;-61
2022/11/15 08:18:09;;;;;;;2.10;1.38;;;11.20;99.90;;;;;;4994268;28;20037;-61
2022/11/15 08:20:35;;;;;;;5.50;1.60;;;11.20;99.90;;;;;;4993482;28;20514;-61
2022/11/15 08:23:03;;;;;;;6.35;1.50;;;11.20;99.90;;;;;;4991242;28;20030;-58
2022/11/15 08:25:30;;;;;;;3.22;1.60;;;11.20;99.90;;;;;;4992628;28;20033;-61
2022/11/15 08:27:58;;;;;;;4.32;1.27;;;11.30;99.90;;;;;;4992741;28;20033;-60
2022/11/15 08:30:25;;;;;;;3.53;1.20;;;11.40;99.90;;;;;;4992121;28;20549;-60
2022/11/15 08:32:52;;;;;;;4.47;1.40;;;11.50;99.90;;;;;;4991943;28;20420;-61
2022/11/15 08:35:18;;;;;;;5.65;1.15;;;11.50;99.90;;;;;;4992234;28;20053;-61
2022/11/15 08:37:44;;;;;;;1.85;1.20;;;11.50;99.90;;;;;;4993137;28;20476;-60
2022/11/15 08:40:10;;;;;;;4.95;1.35;;;11.60;99.90;;;;;;4993142;28;20037;-61
2022/11/15 08:42:36;;;;;;;3.22;1.30;;;11.60;99.90;;;;;;4990785;28;20781;-60
2022/11/15 08:45:02;;;;;;;1.58;1.00;;;11.60;99.90;;;;;;4993210;28;20105;-60
2022/11/15 08:47:27;;;;;;;1.70;1.10;;;11.60;99.90;;;;;;4993358;28;20038;-59
2022/11/15 08:49:53;;;;;;;2.85;1.20;;;11.60;99.90;;;;;;4993425;28;20037;-60
2022/11/15 08:52:18;;;;;;;1.05;0.95;;;11.70;99.90;;;;;;4993297;28;20097;-60
2022/11/15 08:54:44;;;;;;;7.25;2.28;;;11.70;99.90;;;;;;4991041;28;20443;-59
2022/11/15 08:57:10;;;;;;;3.10;1.40;;;11.70;99.90;;;;;;4992988;28;20463;-61
2022/11/15 08:59:38;;;;;;;4.43;1.30;;;11.80;99.90;;;;;;4992023;28;20049;-55
2022/11/15 09:02:04;;;;;;;1.88;1.00;;;11.80;99.90;;;;;;4992167;28;20514;-57
2022/11/15 09:04:30;;;;;;;15.80;1.42;;;11.90;99.90;;;;;;4991289;28;20105;-57
2022/11/15 09:06:56;;;;;;;1.90;1.13;;;12.00;99.90;;;;;;4990557;28;20030;-56
2022/11/15 09:09:21;;;;;;;3.17;1.27;;;12.00;99.90;;;;;;4992670;28;20092;-56
2022/11/15 09:11:47;;;;;;;2.17;1.15;;;12.10;99.90;;;;;;4993850;28;20034;-55
2022/11/15 09:14:13;;;;;;;2.15;1.05;;;12.10;99.90;;;;;;4991019;28;20035;-54
2022/11/15 09:16:39;;;;;;;1.95;1.05;;;12.20;99.90;;;;;;4993539;28;20045;-55
2022/11/15 09:19:05;;;;;;;1.55;1.10;;;12.20;99.90;;;;;;4992343;28;20026;-54
2022/11/15 09:21:31;;;;;;;2.97;1.10;;;12.20;99.90;;;;;;4993438;28;20504;-56
2022/11/15 09:23:57;;;;;;;2.22;1.10;;;12.30;99.90;;;;;;4990361;28;20060;-56
2022/11/15 09:26:22;;;;;;;3.35;0.80;;;12.30;99.90;;;;;;4992983;28;20034;-55
2022/11/15 09:28:48;;;;;;;1.83;1.00;;;12.40;99.90;;;;;;4992669;28;20077;-53
2022/11/15 09:31:14;;;;;;;1.70;1.05;;;12.40;99.90;;;;;;4991172;28;20081;-56
2022/11/15 09:33:39;;;;;;;3.55;1.00;;;12.50;99.90;;;;;;4990588;28;21571;-56
2022/11/15 09:36:09;;;;;;;3.08;1.38;;;12.60;99.90;;;;;;4991913;28;20038;-55
2022/11/15 09:38:35;;;;;;;4.18;1.15;;;12.60;99.90;;;;;;4991430;28;20042;-57
2022/11/15 09:41:12;;;;;;;1.95;1.15;;;12.60;99.90;;;;;;4992512;28;20022;-54
2022/11/15 09:44:06;;;;;;;2.75;0.90;;;12.70;99.90;;;;;;4989993;28;20038;-56
2022/11/15 09:47:10;;;;;;;2.60;0.70;;;12.70;99.90;;;;;;4988996;28;20035;-54
2022/11/15 09:49:35;;;;;;;0.80;0.80;;;12.80;99.90;;;;;;4989184;28;20026;-53
2022/11/15 09:52:02;;;;;;;1.40;0.82;;;12.80;99.90;;;;;;4991230;28;20572;-56
2022/11/15 09:54:37;;;;;;;6.43;1.20;;;12.90;99.90;;;;;;4989431;28;20026;-55
2022/11/15 09:57:09;;;;;;;4.55;1.30;;;12.90;99.90;;;;;;4990577;28;20036;-57
2022/11/15 10:00:01;;;;;;;4.85;0.80;;;12.90;99.90;;;;;;4991732;28;20026;-54
2022/11/15 10:02:29;;;;;;;5.55;0.70;;;12.90;99.90;;;;;;4990046;28;20286;-57
2022/11/15 10:04:58;;;;;;;3.65;0.68;;;13.00;99.90;;;;;;4991877;28;20041;-57
2022/11/15 10:07:53;;;;;;;2.65;0.68;;;13.10;99.90;;;;;;4973761;28;20441;-55
2022/11/15 10:10:37;;;;;;;3.22;0.68;;;13.10;99.90;;;;;;4986637;28;20109;-56
2022/11/15 10:13:03;;;;;;;2.15;0.80;;;13.20;99.90;;;;;;4991678;28;20084;-55
2022/11/15 10:15:29;;;;;;;6.45;0.70;;;13.30;99.90;;;;;;4991001;28;20085;-54
2022/11/15 10:18:06;;;;;;;3.60;0.90;;;13.30;99.90;;;;;;4991072;28;20026;-55
2022/11/15 10:20:38;;;;;;;3.78;0.90;;;13.40;99.90;;;;;;4991711;28;20160;-55
2022/11/15 10:23:12;;;;;;;9.55;1.20;;;13.50;99.90;;;;;;4990933;28;20381;-56
2022/11/15 10:25:38;;;;;;;2.30;0.60;;;13.50;99.90;;;;;;4990285;28;20438;-54
2022/11/15 10:28:13;;;;;;;3.13;0.70;;;13.60;99.90;;;;;;4991223;28;20401;-54
2022/11/15 10:30:42;;;;;;;3.80;0.82;;;13.60;99.90;;;;;;4984812;28;20034;-58
2022/11/15 10:33:29;;;;;;;6.13;0.60;;;13.60;99.90;;;;;;4989209;28;20034;-57
2022/11/15 10:36:13;;;;;;;1.70;0.85;;;13.70;99.90;;;;;;4987286;28;20038;-55
2022/11/15 10:38:48;;;;;;;2.72;0.80;;;13.80;99.90;;;;;;4990993;28;20176;-54
2022/11/15 10:41:15;;;;;;;4.72;0.75;;;13.80;99.90;;;;;;4991341;28;20077;-56
2022/11/15 10:43:41;;;;;;;1.17;0.70;;;13.90;99.90;;;;;;4988094;28;20061;-54
2022/11/15 10:46:24;;;;;;;3.03;0.60;;;13.90;99.90;;;;;;4991181;28;20055;-57
2022/11/15 10:48:49;;;;;;;0.50;0.50;;;13.90;99.90;;;;;;4991193;28;20038;-56
2022/11/15 10:51:25;;;;;;;5.80;0.70;;;14.00;99.90;;;;;;4990547;28;20076;-56
2022/11/15 10:53:51;;;;;;;3.60;0.70;;;14.00;99.90;;;;;;4983394;28;20045;-56
2022/11/15 10:56:22;;;;;;;4.22;0.77;;;14.10;99.90;;;;;;4991148;28;20027;-57
2022/11/15 10:58:55;;;;;;;1.65;0.65;;;14.10;99.90;;;;;;4987718;28;20030;-57
2022/11/15 11:01:29;;;;;;;0.98;0.60;;;14.10;99.90;;;;;;4987147;28;20740;-54
2022/11/15 11:04:06;;;;;;;5.55;0.93;;;14.30;99.90;;;;;;4989666;28;20403;-55
2022/11/15 11:06:50;;;;;;;1.92;0.65;;;14.30;99.90;;;;;;4992056;28;20491;-56
2022/11/15 11:09:32;;;;;;;2.25;0.52;;;14.40;99.90;;;;;;4990302;28;20061;-57
2022/11/15 11:11:58;;;;;;;4.47;1.02;;;14.50;99.90;;;;;;4991342;28;20440;-58
2022/11/15 11:14:32;;;;;;;5.70;0.55;;;14.40;99.90;;;;;;5002811;23;20080;-55
2022/11/15 11:17:10;;;;;;;2.22;0.63;;;14.50;99.90;;;;;;4989494;28;20412;-57
2022/11/15 11:19:59;;;;;;;3.15;0.60;;;14.60;99.90;;;;;;4989663;28;20030;-58
2022/11/15 11:23:03;;;;;;;3.35;0.50;;;14.70;99.90;;;;;;4984937;28;20034;-56
2022/11/15 11:25:40;;;;;;;3.05;0.60;;;14.80;99.90;;;;;;4968392;28;20041;-56
2022/11/15 11:28:19;;;;;;;1.75;0.50;;;14.90;99.90;;;;;;4969356;28;20050;-54
2022/11/15 11:31:17;;;;;;;2.15;0.50;;;14.90;99.90;;;;;;4968487;28;20488;-54
2022/11/15 11:34:05;;;;;;;1.08;0.60;;;14.90;99.90;;;;;;4963084;28;20520;-57
2022/11/15 11:36:51;;;;;;;2.45;0.75;;;14.90;99.90;;;;;;4968822;28;20106;-59
2022/11/15 11:39:50;;;;;;;1.17;0.52;;;15.00;99.90;;;;;;4968951;28;20145;-61
2022/11/15 11:42:34;;;;;;;6.72;0.73;;;15.10;99.90;;;;;;4964118;28;20033;-58
2022/11/15 11:45:29;;;;;;;3.90;0.50;;;15.30;99.90;;;;;;4966824;28;20489;-57
2022/11/15 11:48:00;;;;;;;;;;;15.50;99.90;;;;;;4970398;28;20489;-58
2022/11/15 11:50:27;;;;;;;1.02;0.47;;;15.50;99.90;;;;;;4966800;28;19910;-56
2022/11/15 11:53:18;;;;;;;3.50;0.90;;;15.50;99.90;;;;;;4967483;28;20035;-59
2022/11/15 11:55:52;;;;;;;4.35;0.52;;;15.60;99.90;;;;;;4967604;28;20030;-57
2022/11/15 11:58:26;;;;;;;;;;;15.70;99.90;;;;;;4970885;28;20031;-57
2022/11/15 12:01:14;;;;;;;4.68;0.57;;;15.60;99.90;;;;;;4968858;28;19909;-58
2022/11/15 12:03:43;;;;;;;0.70;0.38;;;15.50;99.90;;;;;;4963562;28;20481;-59
2022/11/15 12:06:29;;;;;;;1.77;0.57;;;15.50;99.90;;;;;;4968151;28;20034;-56
2022/11/15 12:09:14;;;;;;;3.00;0.60;;;15.60;99.90;;;;;;4969340;28;20027;-58
2022/11/15 12:12:10;;;;;;;3.05;0.68;;;15.50;99.90;;;;;;4968381;28;20090;-59
2022/11/15 12:14:35;;;;;;;3.63;0.60;;;15.40;99.90;;;;;;4968621;28;20049;-59
2022/11/15 12:17:01;;;;;;;8.45;1.25;;;15.30;99.90;;;;;;4972575;28;20110;-57
2022/11/15 12:19:28;;;;;;;4.68;0.75;;;15.30;99.90;;;;;;4972709;28;20023;-58
2022/11/15 12:21:58;;;;;;;1.42;0.55;;;15.30;99.90;;;;;;4973024;28;20019;-59
2022/11/15 12:24:45;;;;;;;2.67;0.70;;;15.50;99.90;;;;;;4972781;28;20126;-57
2022/11/15 12:27:27;;;;;;;1.33;0.70;;;15.70;99.90;;;;;;4973330;28;20041;-59
2022/11/15 12:30:09;;;;;;;4.43;0.68;;;15.80;99.90;;;;;;4971940;28;20461;-58
2022/11/15 12:32:37;;;;;;;2.50;1.10;;;15.80;99.90;;;;;;4968641;28;20041;-58
2022/11/15 12:35:20;;;;;;;6.15;0.70;;;15.70;99.90;;;;;;4971385;28;21727;-56
2022/11/15 12:37:50;;;;;;;1.33;0.63;;;15.50;99.90;;;;;;4973097;28;20488;-56
2022/11/15 12:40:20;;;;;;;3.00;0.70;;;15.50;99.90;;;;;;4972820;28;20023;-61
2022/11/15 12:43:03;;;;;;;7.00;0.70;;;15.40;99.90;;;;;;4972770;28;20031;-59
2022/11/15 12:45:31;;;;;;;2.25;0.85;;;15.40;99.90;;;;;;4964044;28;20026;-59
2022/11/15 12:48:25;;;;;;;5.72;0.90;;;15.50;99.90;;;;;;4969686;28;20026;-58
2022/11/15 12:50:51;;;;;;;7.03;0.82;;;15.50;99.90;;;;;;4966672;28;20039;-57
2022/11/15 12:53:23;;;;;;;3.08;0.75;;;15.50;99.90;;;;;;4962433;28;20147;-57
2022/11/15 12:56:04;;;;;;;2.88;0.98;;;15.50;99.90;;;;;;4966840;28;20142;-56
2022/11/15 12:58:53;;;;;;;7.10;0.90;;;15.40;99.90;;;;;;4969494;28;20093;-55
2022/11/15 13:01:30;;;;;;;6.85;0.90;;;15.30;99.90;;;;;;4960538;28;21831;-57
2022/11/15 13:04:21;;;;;;;7.03;1.38;;;15.30;99.90;;;;;;4968426;28;20050;-56
2022/11/15 13:07:07;;;;;;;2.97;1.15;;;15.30;99.90;;;;;;4973579;28;20027;-56
2022/11/15 13:09:35;;;;;;;5.70;1.10;;;15.30;99.90;;;;;;4969415;28;20030;-61
2022/11/15 13:12:25;;;;;;;2.78;1.00;;;15.20;99.90;;;;;;4972661;28;20039;-57
2022/11/15 13:14:57;;;;;;;4.80;1.20;;;15.30;99.90;;;;;;4968786;28;20497;-58
2022/11/15 13:17:27;;;;;;;2.67;1.20;;;15.30;99.90;;;;;;4967099;28;20041;-56
2022/11/15 13:20:06;;;;;;;2.83;1.40;;;15.40;99.90;;;;;;4970478;28;20031;-60
2022/11/15 13:22:59;;;;;;;3.53;1.05;;;15.40;99.90;;;;;;4977181;28;20051;-56